createdAt,value
2018-12-31T00:00:03.831Z,13.30
2018-12-31T00:02:32.737Z,13.00
2018-12-31T00:05:02.134Z,11.70
2018-12-31T00:07:30.530Z,11.00
2018-12-31T00:09:58.903Z,11.20
2018-12-31T00:12:27.236Z,10.60
2018-12-31T00:14:55.573Z,10.80
2018-12-31T00:17:23.958Z,12.58
2018-12-31T00:19:52.339Z,11.50
2018-12-31T00:22:20.671Z,12.00
2018-12-31T00:24:49.009Z,12.57
2018-12-31T00:27:17.359Z,12.83
2018-12-31T00:29:45.684Z,12.30
2018-12-31T00:32:14.593Z,14.23
2018-12-31T00:34:42.965Z,13.07
2018-12-31T00:37:11.321Z,10.97
2018-12-31T00:39:39.666Z,13.57
2018-12-31T00:42:08.023Z,12.30
2018-12-31T00:44:36.360Z,11.43
2018-12-31T00:47:04.720Z,12.10
2018-12-31T00:49:33.066Z,12.70
2018-12-31T00:52:01.392Z,11.93
2018-12-31T00:54:29.769Z,11.80
2018-12-31T00:56:58.120Z,11.67
2018-12-31T00:59:26.489Z,13.50
2018-12-31T01:01:54.873Z,12.60
2018-12-31T01:04:23.228Z,12.60
2018-12-31T01:06:51.554Z,11.53
2018-12-31T01:09:19.973Z,12.03
2018-12-31T01:11:48.782Z,11.93
2018-12-31T01:14:17.379Z,12.70
2018-12-31T01:16:45.701Z,13.40
2018-12-31T01:19:14.521Z,12.40
2018-12-31T01:21:42.867Z,10.80
2018-12-31T01:24:11.174Z,12.80
2018-12-31T01:26:39.513Z,12.50
2018-12-31T01:29:07.873Z,13.13
2018-12-31T01:31:36.182Z,12.57
2018-12-31T01:34:04.637Z,12.73
2018-12-31T01:36:32.974Z,13.07
2018-12-31T01:39:01.281Z,13.33
2018-12-31T01:41:29.638Z,13.50
2018-12-31T01:43:57.989Z,12.67
2018-12-31T01:46:26.366Z,12.13
2018-12-31T01:48:54.715Z,12.97
2018-12-31T01:51:23.031Z,12.57
2018-12-31T01:53:51.356Z,12.85
2018-12-31T01:56:19.708Z,12.80
2018-12-31T01:58:48.041Z,12.43
2018-12-31T02:01:16.629Z,13.08
2018-12-31T02:03:44.951Z,12.70
2018-12-31T02:06:13.773Z,13.40
2018-12-31T02:08:42.120Z,13.60
2018-12-31T02:11:10.468Z,13.70
2018-12-31T02:13:39.641Z,14.38
2018-12-31T02:16:07.975Z,13.30
2018-12-31T02:18:36.325Z,13.50
2018-12-31T02:21:04.721Z,14.43
2018-12-31T02:23:33.135Z,13.07
2018-12-31T02:26:01.485Z,13.27
2018-12-31T02:28:29.856Z,12.17
2018-12-31T02:30:59.072Z,12.10
2018-12-31T02:33:27.408Z,13.20
2018-12-31T02:35:55.750Z,12.50
2018-12-31T02:38:24.060Z,12.80
2018-12-31T02:40:52.435Z,12.37
2018-12-31T02:43:20.903Z,11.33
2018-12-31T02:45:49.247Z,11.50
2018-12-31T02:48:18.541Z,12.20
2018-12-31T02:50:46.885Z,12.80
2018-12-31T02:53:15.671Z,11.40
2018-12-31T02:55:44.005Z,11.88
2018-12-31T02:58:12.618Z,11.80
2018-12-31T03:00:40.935Z,12.00
2018-12-31T03:03:09.322Z,11.30
2018-12-31T03:05:37.687Z,11.77
2018-12-31T03:08:06.038Z,12.60
2018-12-31T03:10:34.387Z,12.17
2018-12-31T03:13:02.816Z,10.90
2018-12-31T03:15:31.212Z,11.90
2018-12-31T03:17:59.546Z,12.20
2018-12-31T03:20:27.872Z,11.33
2018-12-31T03:22:56.214Z,11.07
2018-12-31T03:25:24.545Z,12.20
2018-12-31T03:27:52.898Z,11.37
2018-12-31T03:30:21.266Z,12.30
2018-12-31T03:32:49.621Z,11.60
2018-12-31T03:35:18.443Z,11.83
2018-12-31T03:37:46.806Z,11.97
2018-12-31T03:40:15.518Z,12.17
2018-12-31T03:42:44.025Z,13.03
2018-12-31T03:45:12.609Z,12.47
2018-12-31T03:47:41.053Z,11.45
2018-12-31T03:50:09.369Z,11.10
2018-12-31T03:52:37.789Z,11.67
2018-12-31T03:55:06.293Z,11.17
2018-12-31T03:57:34.730Z,11.63
2018-12-31T04:00:03.225Z,10.72
2018-12-31T04:02:31.589Z,9.83
2018-12-31T04:04:59.938Z,10.47
2018-12-31T04:07:28.271Z,11.60
2018-12-31T04:09:56.653Z,10.20
2018-12-31T04:12:24.984Z,9.75
2018-12-31T04:14:53.334Z,10.53
2018-12-31T04:17:22.149Z,9.80
2018-12-31T04:19:50.510Z,9.93
2018-12-31T04:22:19.502Z,10.35
2018-12-31T04:24:47.831Z,10.83
2018-12-31T04:27:16.193Z,11.20
2018-12-31T04:29:44.518Z,10.97
2018-12-31T04:32:13.442Z,9.57
2018-12-31T04:34:41.758Z,9.20
2018-12-31T04:37:10.118Z,9.93
2018-12-31T04:39:38.457Z,9.67
2018-12-31T04:42:06.813Z,8.93
2018-12-31T04:44:35.141Z,10.60
2018-12-31T04:47:03.524Z,9.65
2018-12-31T04:49:32.006Z,10.37
2018-12-31T04:52:00.370Z,9.87
2018-12-31T04:54:28.703Z,9.93
2018-12-31T04:56:57.058Z,10.60
2018-12-31T04:59:25.757Z,9.50
2018-12-31T05:01:54.066Z,8.53
2018-12-31T05:04:22.415Z,10.60
2018-12-31T05:06:50.746Z,10.08
2018-12-31T05:09:19.107Z,10.28
2018-12-31T05:11:47.447Z,9.67
2018-12-31T05:14:15.981Z,9.00
2018-12-31T05:16:44.311Z,9.27
2018-12-31T05:19:12.774Z,8.80
2018-12-31T05:21:41.093Z,9.60
2018-12-31T05:24:09.463Z,10.10
2018-12-31T05:26:37.798Z,9.00
2018-12-31T05:29:06.149Z,10.17
2018-12-31T05:31:34.784Z,8.50
2018-12-31T05:34:03.154Z,10.18
2018-12-31T05:36:31.660Z,10.77
2018-12-31T05:39:00.044Z,9.97
2018-12-31T05:41:28.372Z,9.97
2018-12-31T05:43:56.713Z,11.40
2018-12-31T05:46:25.165Z,9.20
2018-12-31T05:48:53.513Z,10.60
2018-12-31T05:51:21.843Z,10.97
2018-12-31T05:53:50.234Z,11.60
2018-12-31T05:56:18.586Z,11.37
2018-12-31T05:58:46.935Z,10.97
2018-12-31T06:01:15.411Z,11.60
2018-12-31T06:03:43.789Z,11.20
2018-12-31T06:06:12.242Z,11.17
2018-12-31T06:08:40.570Z,12.00
2018-12-31T06:11:08.901Z,11.87
2018-12-31T06:13:37.268Z,12.20
2018-12-31T06:16:05.614Z,11.57
2018-12-31T06:18:33.961Z,10.50
2018-12-31T06:21:02.389Z,11.03
2018-12-31T06:23:30.782Z,11.27
2018-12-31T06:25:59.122Z,11.20
2018-12-31T06:28:27.476Z,11.37
2018-12-31T06:30:56.772Z,11.80
2018-12-31T06:33:25.122Z,13.27
2018-12-31T06:35:53.461Z,12.57
2018-12-31T06:38:21.897Z,12.15
2018-12-31T06:40:50.324Z,11.70
2018-12-31T06:43:18.667Z,11.53
2018-12-31T06:45:47.114Z,13.30
2018-12-31T06:48:15.440Z,12.30
2018-12-31T06:50:43.828Z,12.47
2018-12-31T06:53:12.157Z,12.40
2018-12-31T06:55:40.624Z,12.00
2018-12-31T06:58:08.937Z,16.67
2018-12-31T07:00:37.347Z,13.60
2018-12-31T07:03:05.676Z,12.90
2018-12-31T07:05:34.040Z,13.43
2018-12-31T07:08:02.378Z,11.70
2018-12-31T07:10:30.733Z,12.50
2018-12-31T07:12:59.091Z,11.30
2018-12-31T07:15:27.424Z,13.30
2018-12-31T07:17:55.746Z,12.27
2018-12-31T07:20:24.135Z,12.13
2018-12-31T07:22:52.546Z,12.20
2018-12-31T07:25:20.889Z,13.90
2018-12-31T07:27:49.209Z,11.75
2018-12-31T07:30:18.506Z,12.63
2018-12-31T07:32:46.849Z,13.00
2018-12-31T07:35:15.243Z,12.13
2018-12-31T07:37:43.529Z,11.13
2018-12-31T07:40:12.155Z,13.37
2018-12-31T07:42:40.503Z,12.63
2018-12-31T07:45:09.635Z,12.40
2018-12-31T07:47:37.985Z,11.37
2018-12-31T07:50:06.347Z,13.43
2018-12-31T07:52:34.677Z,12.67
2018-12-31T07:55:03.163Z,12.20
2018-12-31T07:57:31.569Z,11.33
2018-12-31T07:59:59.975Z,12.37
2018-12-31T08:02:28.333Z,11.73
2018-12-31T08:04:56.672Z,11.60
2018-12-31T08:07:24.994Z,12.00
2018-12-31T08:09:53.365Z,12.47
2018-12-31T08:12:21.713Z,11.80
2018-12-31T08:14:50.044Z,12.03
2018-12-31T08:17:18.405Z,12.40
2018-12-31T08:19:46.722Z,11.30
2018-12-31T08:22:15.965Z,12.10
2018-12-31T08:24:44.289Z,11.27
2018-12-31T08:27:12.629Z,11.57
2018-12-31T08:29:40.969Z,10.03
2018-12-31T08:32:09.637Z,10.40
2018-12-31T08:34:37.978Z,10.10
2018-12-31T08:37:06.546Z,10.30
2018-12-31T08:39:34.848Z,10.20
2018-12-31T08:42:03.189Z,9.10
2018-12-31T08:44:31.593Z,9.80
2018-12-31T08:47:00.008Z,10.17
2018-12-31T08:49:28.334Z,10.27
2018-12-31T08:51:56.692Z,10.50
2018-12-31T08:54:25.064Z,10.83
2018-12-31T08:56:53.489Z,8.90
2018-12-31T08:59:21.827Z,10.50
2018-12-31T09:01:50.191Z,9.53
2018-12-31T09:04:18.556Z,10.23
2018-12-31T09:06:46.878Z,9.77
2018-12-31T09:09:15.209Z,11.00
2018-12-31T09:11:43.586Z,9.30
2018-12-31T09:14:11.903Z,9.70
2018-12-31T09:16:40.290Z,9.63
2018-12-31T09:19:08.769Z,9.73
2018-12-31T09:21:37.741Z,9.40
2018-12-31T09:24:06.105Z,10.13
2018-12-31T09:26:34.485Z,10.10
2018-12-31T09:29:02.902Z,10.00
2018-12-31T09:31:31.247Z,9.80
2018-12-31T09:33:59.589Z,10.27
2018-12-31T09:36:27.987Z,10.93
2018-12-31T09:38:56.305Z,10.67
2018-12-31T09:41:24.644Z,9.70
2018-12-31T09:43:52.983Z,10.73
2018-12-31T09:46:21.338Z,9.23
2018-12-31T09:48:49.700Z,19.33
2018-12-31T09:51:18.061Z,15.83
2018-12-31T09:53:46.396Z,12.58
2018-12-31T09:56:14.748Z,10.70
2018-12-31T09:58:43.173Z,10.07
2018-12-31T10:01:11.542Z,11.70
2018-12-31T10:03:39.963Z,22.00
2018-12-31T10:06:08.550Z,13.20
2018-12-31T10:08:36.898Z,10.70
2018-12-31T10:11:05.241Z,10.10
2018-12-31T10:13:33.601Z,11.70
2018-12-31T10:16:01.939Z,10.77
2018-12-31T10:18:30.294Z,11.17
2018-12-31T10:20:58.639Z,11.70
2018-12-31T10:23:27.021Z,11.77
2018-12-31T10:25:55.400Z,10.47
2018-12-31T10:28:23.811Z,11.18
2018-12-31T10:30:52.155Z,10.70
2018-12-31T10:33:20.492Z,11.20
2018-12-31T10:35:48.821Z,10.53
2018-12-31T10:38:17.597Z,10.30
2018-12-31T10:40:45.958Z,10.23
2018-12-31T10:43:14.321Z,10.87
2018-12-31T10:45:42.670Z,10.87
2018-12-31T10:48:11.016Z,10.03
2018-12-31T10:50:39.354Z,10.97
2018-12-31T10:53:07.886Z,10.77
2018-12-31T10:55:36.243Z,11.40
2018-12-31T10:58:04.567Z,10.00
2018-12-31T11:00:33.552Z,9.27
2018-12-31T11:03:02.383Z,10.00
2018-12-31T11:05:31.576Z,9.30
2018-12-31T11:08:00.890Z,10.20
2018-12-31T11:10:29.933Z,11.30
2018-12-31T11:12:59.110Z,11.67
2018-12-31T11:15:28.161Z,10.30
2018-12-31T11:17:57.082Z,10.60
2018-12-31T11:20:26.088Z,9.83
2018-12-31T11:22:54.422Z,11.23
2018-12-31T11:25:22.766Z,9.60
2018-12-31T11:27:51.113Z,10.87
2018-12-31T11:30:19.512Z,10.53
2018-12-31T11:32:47.854Z,10.40
2018-12-31T11:35:16.189Z,10.10
2018-12-31T11:37:44.513Z,9.78
2018-12-31T11:40:13.237Z,10.77
2018-12-31T11:42:41.583Z,10.27
2018-12-31T11:45:10.546Z,10.60
2018-12-31T11:47:38.855Z,9.60
2018-12-31T11:50:07.354Z,11.00
2018-12-31T11:52:35.702Z,10.20
2018-12-31T11:55:04.188Z,11.10
2018-12-31T11:57:32.535Z,9.73
2018-12-31T12:00:00.841Z,11.08
2018-12-31T12:02:29.186Z,9.30
2018-12-31T12:04:57.534Z,10.70
2018-12-31T12:07:25.874Z,11.03
2018-12-31T12:09:54.221Z,9.40
2018-12-31T12:12:22.743Z,10.53
2018-12-31T12:14:51.087Z,10.30
2018-12-31T12:17:19.430Z,10.43
2018-12-31T12:19:47.749Z,10.90
2018-12-31T12:22:16.071Z,9.20
2018-12-31T12:24:44.809Z,10.43
2018-12-31T12:27:13.172Z,10.20
2018-12-31T12:29:41.859Z,10.40
2018-12-31T12:32:10.206Z,10.33
2018-12-31T12:34:38.537Z,10.10
2018-12-31T12:37:06.993Z,10.10
2018-12-31T12:39:35.355Z,9.70
2018-12-31T12:42:03.745Z,10.85
2018-12-31T12:44:32.200Z,10.48
2018-12-31T12:47:00.583Z,10.23
2018-12-31T12:49:28.950Z,10.30
2018-12-31T12:51:57.306Z,10.10
2018-12-31T12:54:25.682Z,10.10
2018-12-31T12:56:54.002Z,9.80
2018-12-31T12:59:22.342Z,10.33
2018-12-31T13:01:50.693Z,11.83
2018-12-31T13:04:19.114Z,10.20
2018-12-31T13:06:47.440Z,9.50
2018-12-31T13:09:15.854Z,9.07
2018-12-31T13:11:44.200Z,9.83
2018-12-31T13:14:12.549Z,9.17
2018-12-31T13:16:41.189Z,9.30
2018-12-31T13:19:10.075Z,9.93
2018-12-31T13:21:39.110Z,9.90
2018-12-31T13:24:07.589Z,8.97
2018-12-31T13:26:43.368Z,9.60
2018-12-31T13:29:06.271Z,10.10
2018-12-31T13:31:34.660Z,10.30
2018-12-31T13:34:03.097Z,10.30
2018-12-31T13:36:31.467Z,9.50
2018-12-31T13:39:00.405Z,9.93
2018-12-31T13:41:29.065Z,8.90
2018-12-31T13:43:57.409Z,7.97
2018-12-31T13:46:25.790Z,8.97
2018-12-31T13:48:54.103Z,8.60
2018-12-31T13:51:22.466Z,9.07
2018-12-31T13:53:51.235Z,9.30
2018-12-31T13:56:19.579Z,9.47
2018-12-31T13:58:48.009Z,9.60
2018-12-31T14:01:16.354Z,9.27
2018-12-31T14:03:44.715Z,10.10
2018-12-31T14:06:13.045Z,10.60
2018-12-31T14:08:41.376Z,9.70
2018-12-31T14:11:09.981Z,10.38
2018-12-31T14:13:38.304Z,10.77
2018-12-31T14:16:06.768Z,10.13
2018-12-31T14:18:35.066Z,9.57
2018-12-31T14:21:03.417Z,10.60
2018-12-31T14:23:31.770Z,10.20
2018-12-31T14:26:00.141Z,10.40
2018-12-31T14:28:28.572Z,9.63
2018-12-31T14:30:57.028Z,10.10
2018-12-31T14:33:25.385Z,10.40
2018-12-31T14:35:53.751Z,10.20
2018-12-31T14:38:22.154Z,9.77
2018-12-31T14:40:50.586Z,10.07
2018-12-31T14:43:18.928Z,10.57
2018-12-31T14:45:47.578Z,8.77
2018-12-31T14:48:15.964Z,10.30
2018-12-31T14:50:44.305Z,10.03
2018-12-31T14:53:12.731Z,9.63
2018-12-31T14:55:41.737Z,34.05
2018-12-31T14:58:10.393Z,17.53
2018-12-31T15:00:38.727Z,13.18
2018-12-31T15:03:07.082Z,11.03
2018-12-31T15:05:35.561Z,10.60
2018-12-31T15:08:04.009Z,11.27
2018-12-31T15:10:32.354Z,10.50
2018-12-31T15:13:00.698Z,10.57
2018-12-31T15:15:29.105Z,10.90
2018-12-31T15:17:57.426Z,11.10
2018-12-31T15:20:25.756Z,10.80
2018-12-31T15:22:54.170Z,10.20
2018-12-31T15:25:22.609Z,10.50
2018-12-31T15:27:51.019Z,11.13
2018-12-31T15:30:19.426Z,10.43
2018-12-31T15:32:50.101Z,11.70
2018-12-31T15:35:18.435Z,12.57
2018-12-31T15:37:46.831Z,11.00
2018-12-31T15:40:15.151Z,11.33
2018-12-31T15:42:43.498Z,11.83
2018-12-31T15:45:12.429Z,10.93
2018-12-31T15:47:41.102Z,10.77
2018-12-31T15:50:09.694Z,12.00
2018-12-31T15:52:38.296Z,11.70
2018-12-31T15:55:06.667Z,10.97
2018-12-31T15:57:35.106Z,10.83
2018-12-31T16:00:04.773Z,11.37
2018-12-31T16:02:33.546Z,13.23
2018-12-31T16:05:02.020Z,11.33
2018-12-31T16:07:30.457Z,12.30
2018-12-31T16:09:58.788Z,12.30
2018-12-31T16:12:27.172Z,11.73
2018-12-31T16:14:55.647Z,12.90
2018-12-31T16:17:24.060Z,11.70
2018-12-31T16:19:52.415Z,11.53
2018-12-31T16:22:21.606Z,12.33
2018-12-31T16:24:49.927Z,11.27
2018-12-31T16:27:18.260Z,12.90
2018-12-31T16:29:46.642Z,15.17
2018-12-31T16:32:15.180Z,14.63
2018-12-31T16:34:43.586Z,15.20
2018-12-31T16:37:12.133Z,15.43
2018-12-31T16:39:40.493Z,14.70
2018-12-31T16:42:09.050Z,14.53
2018-12-31T16:44:37.520Z,14.60
2018-12-31T16:47:05.973Z,14.07
2018-12-31T16:49:34.359Z,14.10
2018-12-31T16:52:03.470Z,15.13
2018-12-31T16:54:32.550Z,13.77
2018-12-31T16:57:00.957Z,15.23
2018-12-31T16:59:29.297Z,14.97
2018-12-31T17:01:57.629Z,14.60
2018-12-31T17:04:26.001Z,15.27
2018-12-31T17:06:54.431Z,14.03
2018-12-31T17:09:22.800Z,14.57
2018-12-31T17:11:51.160Z,16.50
2018-12-31T17:14:19.518Z,15.80
2018-12-31T17:16:47.848Z,14.80
2018-12-31T17:19:16.213Z,15.77
2018-12-31T17:21:44.726Z,16.10
2018-12-31T17:24:13.213Z,15.37
2018-12-31T17:26:41.527Z,15.90
2018-12-31T17:29:09.885Z,16.55
2018-12-31T17:31:38.211Z,16.00
2018-12-31T17:34:06.993Z,20.70
2018-12-31T17:36:35.345Z,23.10
2018-12-31T17:39:06.559Z,21.00
2018-12-31T17:41:34.889Z,24.17
2018-12-31T17:44:03.309Z,22.85
2018-12-31T17:46:31.666Z,20.70
2018-12-31T17:49:00.202Z,19.83
2018-12-31T17:51:28.613Z,20.80
2018-12-31T17:53:56.960Z,20.03
2018-12-31T17:56:25.362Z,18.10
2018-12-31T17:58:53.703Z,17.77
2018-12-31T18:01:22.129Z,19.37
2018-12-31T18:03:50.872Z,18.90
2018-12-31T18:06:19.718Z,18.15
2018-12-31T18:08:48.040Z,17.30
2018-12-31T18:11:16.650Z,18.57
2018-12-31T18:13:45.278Z,18.60
2018-12-31T18:16:13.990Z,18.32
2018-12-31T18:18:42.323Z,18.27
2018-12-31T18:21:10.798Z,20.10
2018-12-31T18:23:39.139Z,18.83
2018-12-31T18:26:07.817Z,17.07
2018-12-31T18:28:36.156Z,18.70
2018-12-31T18:31:04.516Z,16.62
2018-12-31T18:33:32.882Z,17.77
2018-12-31T18:36:01.232Z,19.00
2018-12-31T18:38:29.620Z,19.02
2018-12-31T18:40:59.053Z,18.90
2018-12-31T18:43:27.423Z,18.23
2018-12-31T18:45:55.770Z,17.87
2018-12-31T18:48:24.117Z,16.87
2018-12-31T18:50:52.492Z,17.30
2018-12-31T18:53:20.865Z,20.50
2018-12-31T18:55:49.210Z,16.10
2018-12-31T18:58:17.547Z,16.90
2018-12-31T19:00:45.898Z,18.40
2018-12-31T19:03:14.720Z,16.70
2018-12-31T19:05:43.479Z,18.83
2018-12-31T19:08:12.015Z,17.07
2018-12-31T19:10:40.360Z,17.40
2018-12-31T19:13:08.767Z,16.17
2018-12-31T19:15:37.106Z,15.75
2018-12-31T19:18:05.461Z,17.47
2018-12-31T19:20:33.781Z,17.20
2018-12-31T19:23:02.198Z,16.47
2018-12-31T19:25:30.649Z,17.60
2018-12-31T19:27:59.010Z,18.17
2018-12-31T19:30:27.497Z,20.43
2018-12-31T19:32:56.454Z,18.70
2018-12-31T19:35:24.801Z,20.60
2018-12-31T19:37:53.150Z,19.20
2018-12-31T19:40:21.490Z,21.73
2018-12-31T19:42:49.851Z,23.83
2018-12-31T19:45:18.361Z,22.00
2018-12-31T19:47:46.700Z,18.07
2018-12-31T19:50:41.163Z,20.13
2018-12-31T19:53:09.513Z,20.30
2018-12-31T19:55:37.849Z,19.70
2018-12-31T19:58:06.191Z,18.03
2018-12-31T20:00:34.540Z,19.17
2018-12-31T20:03:02.989Z,19.63
2018-12-31T20:05:31.329Z,20.13
2018-12-31T20:07:59.975Z,18.40
2018-12-31T20:10:28.295Z,19.60
2018-12-31T20:12:56.717Z,20.13
2018-12-31T20:15:25.070Z,22.30
2018-12-31T20:17:53.460Z,22.97
2018-12-31T20:20:21.910Z,19.90
2018-12-31T20:22:50.948Z,21.40
2018-12-31T20:25:19.410Z,21.73
2018-12-31T20:27:47.750Z,19.97
2018-12-31T20:30:16.444Z,22.37
2018-12-31T20:32:44.758Z,21.53
2018-12-31T20:35:13.975Z,18.60
2018-12-31T20:37:42.318Z,23.80
2018-12-31T20:40:10.777Z,25.10
2018-12-31T20:42:39.122Z,28.03
2018-12-31T20:45:07.663Z,26.10
2018-12-31T20:47:35.996Z,27.60
2018-12-31T20:50:06.166Z,23.30
2018-12-31T20:52:34.522Z,89.80
2018-12-31T20:55:02.876Z,30.43
2018-12-31T20:57:31.293Z,26.30
2018-12-31T20:59:59.682Z,27.57
2018-12-31T21:02:27.992Z,22.22
2018-12-31T21:04:56.354Z,24.30
2018-12-31T21:07:24.674Z,26.40
2018-12-31T21:09:53.033Z,22.40
2018-12-31T21:12:21.377Z,26.10
2018-12-31T21:14:49.753Z,35.57
2018-12-31T21:17:18.490Z,35.37
2018-12-31T21:19:46.857Z,35.80
2018-12-31T21:22:15.198Z,34.17
2018-12-31T21:24:43.762Z,32.83
2018-12-31T21:27:12.299Z,27.20
2018-12-31T21:29:40.638Z,28.30
2018-12-31T21:32:09.566Z,27.48
2018-12-31T21:34:37.915Z,26.10
2018-12-31T21:37:06.267Z,26.30
2018-12-31T21:39:34.641Z,25.63
2018-12-31T21:42:02.949Z,55.70
2018-12-31T21:44:31.580Z,26.10
2018-12-31T21:46:59.942Z,26.47
2018-12-31T21:49:28.360Z,25.10
2018-12-31T21:51:56.717Z,27.17
2018-12-31T21:54:25.118Z,26.40
2018-12-31T21:56:53.513Z,24.65
2018-12-31T21:59:21.837Z,25.30
2018-12-31T22:01:50.209Z,23.90
2018-12-31T22:04:18.534Z,21.87
2018-12-31T22:06:46.977Z,22.87
2018-12-31T22:09:15.665Z,23.47
2018-12-31T22:11:44.427Z,23.83
2018-12-31T22:14:13.181Z,24.20
2018-12-31T22:16:41.521Z,27.17
2018-12-31T22:19:09.861Z,28.40
2018-12-31T22:21:38.231Z,27.73
2018-12-31T22:24:06.999Z,28.40
2018-12-31T22:26:35.364Z,31.87
2018-12-31T22:29:03.785Z,32.30
2018-12-31T22:31:32.168Z,30.85
2018-12-31T22:34:00.515Z,30.70
2018-12-31T22:36:28.925Z,32.33
2018-12-31T22:38:57.333Z,32.57
2018-12-31T22:41:25.688Z,33.73
2018-12-31T22:43:54.017Z,32.20
2018-12-31T22:46:22.379Z,34.00
2018-12-31T22:48:50.723Z,34.83
2018-12-31T22:51:19.455Z,36.67
2018-12-31T22:53:47.802Z,38.40
2018-12-31T22:56:16.127Z,51.30
2018-12-31T22:58:44.559Z,55.60
2018-12-31T23:01:13.826Z,79.47
2018-12-31T23:03:44.281Z,122.07
2018-12-31T23:06:12.655Z,161.07
2018-12-31T23:08:41.005Z,247.70
2018-12-31T23:11:09.387Z,293.52
2018-12-31T23:13:37.721Z,512.30
2018-12-31T23:16:06.251Z,715.23
2018-12-31T23:18:34.583Z,525.33
2018-12-31T23:21:02.955Z,895.05
2018-12-31T23:23:31.335Z,703.07
2018-12-31T23:25:59.677Z,664.80
2018-12-31T23:28:28.397Z,477.32
2018-12-31T23:30:57.148Z,406.57
2018-12-31T23:33:25.667Z,778.80
2018-12-31T23:35:54.085Z,278.43
2018-12-31T23:38:22.483Z,258.77
2018-12-31T23:40:50.826Z,242.00
2018-12-31T23:43:19.392Z,333.13
2018-12-31T23:45:47.755Z,292.30
2018-12-31T23:48:16.414Z,256.75
2018-12-31T23:50:44.773Z,239.50
2018-12-31T23:53:13.768Z,213.93
2018-12-31T23:55:42.097Z,167.00
2018-12-31T23:58:10.513Z,150.77
